Time;durP1;ratioP1;P1;durP2;ratioP2;P2;SDS_P1;SDS_P2;PMS_P1;PMS_P2;Temp;Humidity;BMP_temperature;BMP_pressure;BME280_temperature;BME280_humidity;BME280_pressure;Samples;Min_cycle;Max_cycle;Signal;HPM_P1;HPM_P2
2023/07/05 00:01:31;;;;;;;6.82;3.92;;;14.40;95.70;14.40;100406.00;;;;4953803;28;101467;-71
2023/07/05 00:03:57;;;;;;;7.15;3.13;;;14.40;95.90;14.40;100403.00;;;;4970403;28;110671;-71
2023/07/05 00:06:23;;;;;;;3.65;3.03;;;14.40;96.00;14.40;100393.00;;;;4969996;28;99205;-71
2023/07/05 00:08:49;;;;;;;6.90;3.80;;;14.40;96.20;14.40;100394.00;;;;4965763;28;122640;-71
2023/07/05 00:11:15;;;;;;;6.90;4.45;;;14.40;96.40;14.40;100389.00;;;;4968404;28;93046;-71
2023/07/05 00:13:41;;;;;;;5.18;3.35;;;14.40;96.60;14.40;100385.00;;;;4970531;28;92393;-72
2023/07/05 00:16:10;;;;;;;4.53;3.22;;;14.40;96.80;14.40;100390.00;;;;4953292;28;101541;-71
2023/07/05 00:18:37;;;;;;;8.63;3.28;;;14.40;97.00;14.40;100385.00;;;;4963763;28;93330;-71
2023/07/05 00:21:06;;;;;;;4.22;3.45;;;14.40;97.10;14.40;100388.00;;;;4968680;28;93766;-71
2023/07/05 00:23:34;;;;;;;5.95;3.47;;;14.40;97.30;14.40;100377.00;;;;4968743;28;93013;-71
2023/07/05 00:26:02;;;;;;;5.70;4.10;;;14.30;97.40;14.40;100373.00;;;;4970815;28;92887;-71
2023/07/05 00:28:27;;;;;;;4.38;3.05;;;14.30;97.60;14.40;100362.00;;;;4945996;28;100784;-71
2023/07/05 00:30:53;;;;;;;4.13;3.03;;;14.30;97.70;14.40;100361.00;;;;4964932;28;124412;-71
2023/07/05 00:33:19;;;;;;;5.32;3.15;;;14.30;97.80;14.30;100364.00;;;;4966549;28;93363;-71
2023/07/05 00:35:53;;;;;;;4.10;3.20;;;14.30;98.00;14.30;100351.00;;;;4965612;28;108133;-71
2023/07/05 00:38:19;;;;;;;4.73;3.37;;;14.30;98.20;14.30;100359.00;;;;4948734;28;110242;-71
2023/07/05 00:40:46;;;;;;;4.10;3.70;;;14.30;98.30;14.40;100358.00;;;;4951053;28;94866;-70
2023/07/05 00:43:14;;;;;;;4.30;3.23;;;14.30;98.40;14.30;100359.00;;;;4968261;28;102384;-70
2023/07/05 00:45:57;;;;;;;7.03;3.22;;;14.30;98.60;14.30;100348.00;;;;4966711;28;93962;-70
2023/07/05 00:48:34;;;;;;;9.90;3.42;;;14.30;98.70;14.30;100354.00;;;;4967491;28;92766;-70
2023/07/05 00:51:13;;;;;;;3.40;3.10;;;14.20;98.70;14.30;100348.00;;;;4953181;28;93003;-70
2023/07/05 00:53:39;;;;;;;3.80;2.65;;;14.20;98.80;14.20;100356.00;;;;4967110;28;93054;-70
2023/07/05 00:56:15;;;;;;;7.80;3.95;;;14.20;98.90;14.20;100348.00;;;;4964575;28;108389;-70
2023/07/05 00:58:41;;;;;;;3.85;2.50;;;14.20;99.10;14.20;100355.00;;;;4948348;28;113178;-70
2023/07/05 01:01:07;;;;;;;3.50;2.78;;;14.20;99.30;14.20;100343.00;;;;4966613;28;122644;-70
2023/07/05 01:03:33;;;;;;;5.43;3.30;;;14.20;99.50;14.20;100349.00;;;;4969996;28;99192;-70
2023/07/05 01:06:00;;;;;;;4.30;3.17;;;14.20;99.60;14.10;100340.00;;;;4966048;28;109206;-71
2023/07/05 01:08:26;;;;;;;7.33;2.90;;;14.10;99.80;14.10;100337.00;;;;4944489;28;93924;-71
2023/07/05 01:11:10;;;;;;;4.33;2.93;;;14.10;99.90;14.10;100331.00;;;;4950699;28;98742;-70
2023/07/05 01:13:46;;;;;;;3.88;3.30;;;14.10;99.90;14.00;100337.00;;;;4949657;28;101037;-70
2023/07/05 01:16:29;;;;;;;4.30;3.60;;;14.00;99.90;14.00;100324.00;;;;4951268;28;92980;-70
2023/07/05 01:19:18;;;;;;;3.23;2.90;;;14.00;99.90;14.00;100325.00;;;;4964550;28;93199;-70
2023/07/05 01:21:57;;;;;;;5.13;3.72;;;14.00;99.90;14.00;100324.00;;;;4969385;28;93147;-70
2023/07/05 01:24:54;;;;;;;6.47;3.55;;;14.00;99.90;14.00;100320.00;;;;4966467;28;100807;-70
2023/07/05 01:28:06;;;;;;;4.83;3.60;;;14.00;99.90;13.90;100333.00;;;;4950901;28;99310;-70
2023/07/05 01:31:10;;;;;;;5.25;3.28;;;13.90;99.90;13.90;100319.00;;;;4928046;28;104983;-70
2023/07/05 01:34:07;;;;;;;5.87;2.93;;;13.90;99.90;13.90;100312.00;;;;4969321;28;92818;-70
2023/07/05 01:36:34;;;;;;;3.97;3.20;;;13.90;99.90;13.90;100308.00;;;;4955787;28;102204;-70
2023/07/05 01:39:00;;;;;;;5.03;4.00;;;13.90;99.90;14.00;100307.00;;;;4954738;28;101839;-70
2023/07/05 01:41:25;;;;;;;5.80;2.50;;;13.90;99.90;14.00;100307.00;;;;4954364;28;121789;-69
2023/07/05 01:43:52;;;;;;;3.93;3.03;;;13.90;99.90;14.00;100301.00;;;;4971314;28;122680;-69
2023/07/05 01:46:49;;;;;;;5.43;3.23;;;13.90;99.90;13.90;100296.00;;;;4970634;28;92834;-69
2023/07/05 01:50:23;;;;;;;5.67;2.97;;;13.90;99.90;13.90;100288.00;;;;4968581;28;93063;-69
2023/07/05 01:53:04;;;;;;;7.00;3.00;;;13.90;99.90;13.90;100287.00;;;;4911030;28;93635;-70
2023/07/05 01:55:45;;;;;;;4.77;2.83;;;13.90;99.90;13.90;100288.00;;;;4909490;28;114282;-70
2023/07/05 01:58:19;;;;;;;4.53;2.93;;;13.90;99.90;13.90;100281.00;;;;4932109;28;93824;-69
2023/07/05 02:00:48;;;;;;;3.20;2.77;;;13.90;99.90;13.90;100277.00;;;;4974208;28;93150;-69
2023/07/05 02:03:19;;;;;;;2.87;2.57;;;13.90;99.90;13.90;100260.00;;;;4955165;28;93821;-68
2023/07/05 02:05:47;;;;;;;6.25;3.22;;;13.90;99.90;14.00;100257.00;;;;4968365;28;115035;-69
2023/07/05 02:08:13;;;;;;;4.13;3.70;;;13.90;99.90;14.00;100258.00;;;;4971077;28;92863;-69
2023/07/05 02:10:40;;;;;;;5.93;3.20;;;13.90;99.90;14.00;100256.00;;;;4969423;28;102148;-69
2023/07/05 02:13:08;;;;;;;5.82;3.42;;;13.90;99.90;14.00;100243.00;;;;4949049;28;93426;-68
2023/07/05 02:15:35;;;;;;;8.32;3.05;;;14.00;99.90;14.10;100245.00;;;;4953711;28;93655;-69
2023/07/05 02:18:02;;;;;;;4.78;3.35;;;14.00;99.90;14.10;100235.00;;;;4969801;28;92739;-69
2023/07/05 02:20:28;;;;;;;6.73;3.53;;;14.00;99.90;14.10;100237.00;;;;4969148;28;109106;-69
2023/07/05 02:22:55;;;;;;;4.37;2.97;;;14.00;99.90;14.10;100237.00;;;;4940380;28;94664;-69
2023/07/05 02:25:21;;;;;;;5.43;3.55;;;14.00;99.90;14.10;100224.00;;;;4971582;28;93172;-69
2023/07/05 02:27:47;;;;;;;5.10;3.10;;;14.10;99.90;14.10;100217.00;;;;4969188;28;110660;-69
2023/07/05 02:30:13;;;;;;;6.72;3.13;;;14.00;99.90;14.20;100222.00;;;;4963979;28;108213;-69
2023/07/05 02:32:39;;;;;;;6.30;3.40;;;14.10;99.90;14.20;100206.00;;;;4968286;28;94071;-69
2023/07/05 02:35:08;;;;;;;3.45;2.60;;;14.10;99.90;14.20;100215.00;;;;4971459;28;94179;-69
2023/07/05 02:37:34;;;;;;;4.97;3.00;;;14.10;99.90;14.20;100209.00;;;;4972156;28;92749;-69
2023/07/05 02:40:01;;;;;;;6.10;4.03;;;14.10;99.90;14.10;100214.00;;;;4966860;28;94235;-69
2023/07/05 02:42:27;;;;;;;5.10;4.10;;;14.10;99.90;14.10;100205.00;;;;4950879;28;92993;-69
2023/07/05 02:44:52;;;;;;;5.87;3.13;;;14.10;99.90;14.10;100196.00;;;;4956383;28;113980;-70
2023/07/05 02:47:19;;;;;;;5.63;3.58;;;14.10;99.90;14.10;100207.00;;;;4972903;28;101610;-70
2023/07/05 02:49:46;;;;;;;5.70;3.07;;;14.10;99.90;14.10;100201.00;;;;4970004;28;92871;-70
2023/07/05 02:52:12;;;;;;;4.53;3.77;;;14.10;99.90;14.10;100184.00;;;;4964482;28;123308;-70
2023/07/05 02:54:47;;;;;;;4.87;2.90;;;14.00;99.90;14.10;100183.00;;;;4969519;28;93890;-69
2023/07/05 02:57:13;;;;;;;5.77;3.57;;;14.10;99.90;14.10;100184.00;;;;4967768;28;109615;-69
2023/07/05 02:59:38;;;;;;;7.97;4.30;;;14.00;99.90;14.00;100179.00;;;;4962916;28;109310;-69
2023/07/05 03:02:04;;;;;;;7.43;3.23;;;14.00;99.90;14.00;100176.00;;;;4970332;28;117704;-70
2023/07/05 03:04:30;;;;;;;3.87;3.33;;;14.00;99.90;14.00;100172.00;;;;4950270;28;120961;-70
2023/07/05 03:06:56;;;;;;;5.63;3.43;;;14.00;99.90;14.00;100180.00;;;;4968353;28;93038;-69
2023/07/05 03:09:21;;;;;;;4.93;3.93;;;13.90;99.90;14.00;100178.00;;;;4938580;28;93317;-69
2023/07/05 03:11:47;;;;;;;4.53;3.57;;;13.90;99.90;13.90;100170.00;;;;4969250;28;122456;-70
2023/07/05 03:14:13;;;;;;;5.70;3.57;;;13.90;99.90;13.90;100166.00;;;;4970708;28;93165;-69
2023/07/05 03:16:39;;;;;;;10.83;4.63;;;13.90;99.90;13.90;100177.00;;;;4979529;28;109961;-70
2023/07/05 03:19:04;;;;;;;6.70;4.30;;;13.90;99.90;13.90;100172.00;;;;4965956;28;109348;-69
2023/07/05 03:21:30;;;;;;;5.40;4.27;;;13.90;99.90;13.90;100171.00;;;;4966777;28;122654;-70
2023/07/05 03:23:55;;;;;;;5.60;3.60;;;13.90;99.90;13.90;100171.00;;;;4964439;28;120654;-70
2023/07/05 03:26:21;;;;;;;4.87;3.90;;;13.90;99.90;13.90;100169.00;;;;4968180;28;109618;-70
2023/07/05 03:28:47;;;;;;;7.27;4.30;;;13.80;99.90;13.90;100169.00;;;;4965837;28;108337;-70
2023/07/05 03:31:16;;;;;;;9.33;3.77;;;13.80;99.90;13.90;100163.00;;;;4970607;28;93526;-70
2023/07/05 03:33:42;;;;;;;5.87;2.93;;;13.80;99.90;13.90;100162.00;;;;4966446;28;93880;-70
2023/07/05 03:36:12;;;;;;;9.87;4.73;;;13.80;99.90;13.90;100158.00;;;;4967792;28;109575;-70
2023/07/05 03:38:38;;;;;;;5.83;4.17;;;13.90;99.90;13.90;100150.00;;;;4970751;28;93095;-71
2023/07/05 03:41:08;;;;;;;7.13;5.00;;;13.90;99.90;13.90;100145.00;;;;4967077;28;121911;-70
2023/07/05 03:43:35;;;;;;;5.40;4.17;;;13.90;99.90;14.00;100147.00;;;;4964135;28;94122;-70
2023/07/05 03:46:04;;;;;;;4.47;4.07;;;13.90;99.90;14.00;100146.00;;;;4965138;28;92818;-69
2023/07/05 03:48:34;;;;;;;6.47;5.17;;;13.90;99.90;14.00;100140.00;;;;4966011;28;94501;-69
2023/07/05 03:51:00;;;;;;;8.73;4.43;;;14.00;99.90;14.10;100150.00;;;;4967031;28;93681;-69
2023/07/05 03:53:27;;;;;;;14.05;4.72;;;14.00;99.90;14.20;100145.00;;;;4954408;28;93392;-69
2023/07/05 03:55:53;;;;;;;7.57;5.35;;;14.00;99.90;14.20;100143.00;;;;4971246;28;99817;-69
2023/07/05 03:58:19;;;;;;;7.72;4.95;;;14.10;99.90;14.30;100140.00;;;;4964536;28;110050;-70
2023/07/05 04:00:45;;;;;;;6.67;4.57;;;14.20;99.90;14.40;100141.00;;;;4966471;28;93243;-71
2023/07/05 04:03:12;;;;;;;7.23;4.77;;;14.30;99.90;14.50;100142.00;;;;4949004;28;108507;-70
2023/07/05 04:05:39;;;;;;;6.13;4.70;;;14.30;99.90;14.60;100132.00;;;;4967484;28;101232;-70
2023/07/05 04:08:04;;;;;;;10.57;5.45;;;14.40;99.90;14.70;100133.00;;;;4965219;28;97196;-70
2023/07/05 04:10:30;;;;;;;9.23;4.97;;;14.50;99.90;14.80;100127.00;;;;4967191;28;121612;-70
2023/07/05 04:12:56;;;;;;;11.67;6.73;;;14.60;99.90;14.80;100137.00;;;;4966009;28;121664;-70
2023/07/05 04:15:24;;;;;;;6.77;4.40;;;14.70;99.90;14.90;100134.00;;;;4967076;28;109659;-70
2023/07/05 04:17:50;;;;;;;7.32;4.50;;;14.80;99.90;15.00;100130.00;;;;4966736;28;97544;-69
2023/07/05 04:20:16;;;;;;;8.00;4.88;;;14.90;99.90;15.00;100127.00;;;;4966052;28;122826;-70
2023/07/05 04:22:42;;;;;;;8.40;4.43;;;14.90;99.90;15.10;100134.00;;;;4965541;28;121922;-69
2023/07/05 04:25:09;;;;;;;7.38;5.53;;;15.00;99.90;15.20;100125.00;;;;4968380;28;92200;-69
2023/07/05 04:27:35;;;;;;;6.47;5.07;;;15.00;99.90;15.20;100120.00;;;;4964379;28;93297;-70
2023/07/05 04:30:03;;;;;;;7.18;4.85;;;15.10;99.90;15.30;100120.00;;;;4949955;28;121394;-69
2023/07/05 04:32:30;;;;;;;9.40;5.38;;;15.20;99.90;15.40;100107.00;;;;4964787;28;94379;-69
2023/07/05 04:34:56;;;;;;;5.53;4.30;;;15.20;99.90;15.50;100108.00;;;;4965708;28;92998;-69
2023/07/05 04:37:21;;;;;;;8.50;5.70;;;15.40;99.90;15.70;100115.00;;;;4968643;28;102869;-69
2023/07/05 04:39:47;;;;;;;13.15;6.35;;;15.50;99.90;15.90;100109.00;;;;4964847;28;122588;-69
2023/07/05 04:42:13;;;;;;;10.63;5.72;;;15.70;99.90;16.10;100109.00;;;;4967644;28;120190;-69
2023/07/05 04:44:39;;;;;;;7.45;5.60;;;15.90;99.90;16.30;100096.00;;;;4964745;28;110625;-69
2023/07/05 04:47:05;;;;;;;9.45;4.82;;;16.10;99.90;16.50;100096.00;;;;4967440;28;93028;-69
2023/07/05 04:49:30;;;;;;;10.10;5.32;;;16.30;99.90;16.80;100081.00;;;;4971203;28;107138;-68
2023/07/05 04:51:56;;;;;;;8.63;5.97;;;16.50;99.90;17.00;100091.00;;;;4966156;28;120623;-68
2023/07/05 04:54:22;;;;;;;7.60;4.68;;;16.80;99.90;17.20;100090.00;;;;4947658;28;110302;-69
2023/07/05 04:56:47;;;;;;;6.75;4.35;;;17.00;99.90;17.50;100089.00;;;;4964261;28;108587;-69
2023/07/05 04:59:13;;;;;;;8.63;5.63;;;17.30;99.90;17.70;100090.00;;;;4966401;28;123266;-69
2023/07/05 05:01:39;;;;;;;9.55;5.70;;;17.50;99.90;17.90;100096.00;;;;4968935;28;122127;-69
2023/07/05 05:04:05;;;;;;;8.15;4.75;;;17.70;99.90;18.10;100091.00;;;;4965826;28;93050;-68
2023/07/05 05:06:31;;;;;;;13.15;5.70;;;17.80;99.90;18.30;100080.00;;;;4967168;28;109318;-68
2023/07/05 05:08:56;;;;;;;11.27;4.93;;;18.00;99.90;18.40;100089.00;;;;4965519;28;122482;-68
2023/07/05 05:11:22;;;;;;;8.82;5.35;;;18.20;99.90;18.60;100090.00;;;;4955316;28;121395;-68
2023/07/05 05:13:49;;;;;;;7.50;5.25;;;18.30;99.60;18.70;100087.00;;;;4967486;28;92091;-68
2023/07/05 05:16:15;;;;;;;6.38;4.60;;;18.40;99.20;18.80;100086.00;;;;4969809;28;108698;-68
2023/07/05 05:18:43;;;;;;;5.80;4.28;;;18.60;98.70;18.90;100086.00;;;;4966948;28;121504;-68
2023/07/05 05:21:09;;;;;;;5.95;4.63;;;18.70;98.10;18.90;100086.00;;;;4963404;28;93781;-68
2023/07/05 05:23:36;;;;;;;8.23;4.75;;;18.70;97.00;19.00;100076.00;;;;4967644;28;94352;-70
2023/07/05 05:26:02;;;;;;;10.23;5.57;;;18.80;96.40;19.00;100075.00;;;;4940894;28;95683;-68
2023/07/05 05:28:30;;;;;;;10.15;6.00;;;18.80;96.20;19.10;100064.00;;;;4952410;28;95390;-68
2023/07/05 05:31:08;;;;;;;9.00;5.45;;;18.90;95.50;19.20;100068.00;;;;4970387;28;93586;-68
2023/07/05 05:33:34;;;;;;;7.50;4.90;;;19.00;95.50;19.30;100061.00;;;;4966879;28;93169;-69
2023/07/05 05:36:01;;;;;;;8.15;4.40;;;19.10;95.20;19.40;100053.00;;;;4964120;28;92934;-69
2023/07/05 05:38:26;;;;;;;9.88;4.78;;;19.10;95.10;19.50;100051.00;;;;4967079;28;122599;-70
2023/07/05 05:40:52;;;;;;;7.55;5.10;;;19.20;94.90;19.60;100050.00;;;;4947301;28;121971;-69
2023/07/05 05:43:19;;;;;;;11.10;4.85;;;19.30;94.40;19.70;100053.00;;;;4946765;28;97870;-70
2023/07/05 05:45:45;;;;;;;8.23;5.55;;;19.50;94.30;19.90;100048.00;;;;4949655;28;93742;-70
2023/07/05 05:48:11;;;;;;;6.45;4.88;;;19.70;93.50;20.10;100046.00;;;;4965921;28;123180;-70
2023/07/05 05:50:36;;;;;;;10.20;5.40;;;19.80;92.80;20.40;100047.00;;;;4963855;28;121280;-69
2023/07/05 05:53:02;;;;;;;9.60;5.47;;;20.00;92.00;20.50;100040.00;;;;4966079;28;110589;-69
2023/07/05 05:55:28;;;;;;;8.13;5.07;;;20.20;91.40;20.70;100050.00;;;;4964491;28;92878;-70
2023/07/05 05:57:54;;;;;;;8.90;4.88;;;20.40;91.00;20.80;100033.00;;;;4967289;28;93174;-70
2023/07/05 06:00:20;;;;;;;6.93;4.43;;;20.60;90.40;20.90;100035.00;;;;4966982;28;93246;-68
2023/07/05 06:02:46;;;;;;;8.43;5.47;;;20.70;90.20;21.00;100038.00;;;;4963150;28;92222;-68
2023/07/05 06:05:12;;;;;;;5.18;3.72;;;20.80;89.80;21.10;100034.00;;;;4962858;28;108736;-69
2023/07/05 06:07:38;;;;;;;9.35;5.30;;;20.90;89.40;21.20;100032.00;;;;4949869;28;94028;-69
2023/07/05 06:10:05;;;;;;;10.90;5.38;;;21.00;88.50;21.30;100035.00;;;;4966751;28;113744;-69
2023/07/05 06:12:30;;;;;;;7.63;5.03;;;21.00;87.00;21.40;100026.00;;;;4970118;28;92807;-68
2023/07/05 06:14:56;;;;;;;7.97;4.82;;;21.10;87.10;21.50;100030.00;;;;4970231;28;108874;-69
2023/07/05 06:17:22;;;;;;;8.65;5.93;;;21.20;87.40;21.60;100030.00;;;;4967432;28;101676;-69
2023/07/05 06:19:47;;;;;;;11.05;5.15;;;21.30;86.70;21.70;100021.00;;;;4966980;28;121498;-70
2023/07/05 06:22:13;;;;;;;10.98;4.45;;;21.40;86.10;21.80;100014.00;;;;4968122;28;111478;-70
2023/07/05 06:24:42;;;;;;;7.60;4.90;;;21.60;86.10;22.00;100024.00;;;;4970246;28;92869;-70
2023/07/05 06:27:08;;;;;;;13.40;5.50;;;21.70;85.80;22.10;100028.00;;;;4970031;28;92229;-70
2023/07/05 06:29:33;;;;;;;8.27;5.20;;;21.80;85.80;22.20;100011.00;;;;4964857;28;92974;-70
2023/07/05 06:31:59;;;;;;;6.97;4.20;;;21.90;85.20;22.40;100024.00;;;;4969441;28;93212;-70
2023/07/05 06:34:25;;;;;;;5.35;4.80;;;22.10;85.10;22.50;100036.00;;;;4952048;28;104663;-71
2023/07/05 06:36:51;;;;;;;8.05;4.38;;;22.20;84.90;22.60;100036.00;;;;4953196;28;121230;-70
2023/07/05 06:39:17;;;;;;;8.90;5.30;;;22.30;84.50;22.80;100040.00;;;;4964951;28;113518;-70
2023/07/05 06:41:42;;;;;;;7.15;4.60;;;22.40;84.30;23.00;100040.00;;;;4968228;28;92985;-71
2023/07/05 06:44:08;;;;;;;7.50;4.10;;;22.70;84.00;23.20;100044.00;;;;4969011;28;107721;-70
2023/07/05 06:46:34;;;;;;;8.68;4.55;;;22.80;82.80;23.40;100044.00;;;;4967671;28;122830;-71
2023/07/05 06:48:59;;;;;;;8.57;4.95;;;23.10;80.70;23.70;100049.00;;;;4962945;28;122734;-70
2023/07/05 06:51:25;;;;;;;11.95;4.90;;;23.30;81.50;23.90;100034.00;;;;4969046;28;110512;-68
2023/07/05 06:53:51;;;;;;;8.52;4.10;;;23.50;81.20;24.10;100047.00;;;;4965945;28;93072;-69
2023/07/05 06:56:17;;;;;;;7.55;4.60;;;23.80;80.10;24.40;100045.00;;;;4965082;28;122904;-70
2023/07/05 06:58:43;;;;;;;10.30;5.15;;;24.10;75.40;24.70;100049.00;;;;4953903;28;122512;-69
2023/07/05 07:01:09;;;;;;;7.68;4.05;;;24.30;70.70;24.90;100055.00;;;;4966723;28;110670;-69
2023/07/05 07:03:34;;;;;;;7.07;3.92;;;24.60;68.20;25.10;100043.00;;;;4969228;28;92977;-70
2023/07/05 07:06:00;;;;;;;7.50;4.45;;;24.80;66.20;25.20;100045.00;;;;4967120;28;123365;-70
2023/07/05 07:08:36;;;;;;;6.15;4.38;;;24.80;64.40;25.20;100043.00;;;;4971447;28;93244;-68
2023/07/05 07:11:03;;;;;;;6.28;4.20;;;25.00;63.80;25.30;100054.00;;;;4967619;28;92770;-69
2023/07/05 07:13:29;;;;;;;6.32;3.80;;;25.00;64.00;25.30;100044.00;;;;4965989;28;92924;-69
2023/07/05 07:16:12;;;;;;;4.20;3.25;;;25.00;63.60;25.40;100046.00;;;;4967317;28;95362;-70
2023/07/05 07:18:38;;;;;;;7.72;3.85;;;25.10;61.70;25.40;100040.00;;;;4967524;28;112307;-69
2023/07/05 07:21:11;;;;;;;5.75;3.85;;;25.20;61.80;25.60;100033.00;;;;4965913;28;93083;-71
2023/07/05 07:23:37;;;;;;;5.47;3.22;;;25.20;62.00;25.80;100041.00;;;;4967778;28;95461;-70
2023/07/05 07:26:07;;;;;;;7.05;3.63;;;25.40;59.60;25.90;100036.00;;;;4967962;28;123223;-70
2023/07/05 07:28:33;;;;;;;7.15;3.72;;;25.60;59.30;26.10;100044.00;;;;4962592;28;94121;-70
2023/07/05 07:31:10;;;;;;;12.27;3.83;;;25.70;59.10;26.20;100036.00;;;;4965580;28;92909;-71
2023/07/05 07:33:35;;;;;;;5.22;3.47;;;25.90;58.70;26.30;100038.00;;;;4966482;28;92866;-73
2023/07/05 07:36:16;;;;;;;6.05;3.40;;;25.90;58.70;26.40;100040.00;;;;4967298;28;93182;-73
2023/07/05 07:38:43;;;;;;;8.35;3.67;;;26.10;58.60;26.50;100036.00;;;;4965033;28;93577;-74
2023/07/05 07:41:28;;;;;;;5.38;3.58;;;26.20;57.40;26.40;100028.00;;;;4966663;28;92067;-73
2023/07/05 07:43:57;;;;;;;7.38;3.50;;;26.20;57.10;26.40;100035.00;;;;4952022;28;93113;-73
2023/07/05 07:46:26;;;;;;;6.63;3.83;;;26.10;57.30;26.40;100034.00;;;;4964075;28;95285;-73
2023/07/05 07:48:55;;;;;;;4.50;3.22;;;26.10;57.30;26.40;100040.00;;;;4965460;28;101015;-73
2023/07/05 07:51:25;;;;;;;3.97;3.17;;;26.10;56.90;26.40;100038.00;;;;4968089;28;92841;-72
2023/07/05 07:53:51;;;;;;;4.15;3.05;;;26.10;57.30;26.40;100027.00;;;;4968148;28;93080;-74
2023/07/05 07:56:20;;;;;;;6.55;3.13;;;26.10;57.20;26.50;100033.00;;;;4962726;28;93627;-72
2023/07/05 07:58:50;;;;;;;4.00;3.17;;;26.20;57.00;26.40;100034.00;;;;4971529;28;93634;-75
2023/07/05 08:01:24;;;;;;;4.05;2.15;;;26.20;56.70;26.40;100037.00;;;;4966003;28;92995;-73
2023/07/05 08:03:50;;;;;;;3.30;2.65;;;26.20;56.20;26.50;100034.00;;;;4963883;28;92929;-72
2023/07/05 08:06:15;;;;;;;3.90;2.38;;;26.20;57.00;26.70;100027.00;;;;4966796;28;121429;-75
2023/07/05 08:08:41;;;;;;;3.92;2.97;;;26.40;56.40;26.90;100035.00;;;;4966865;28;121340;-74
2023/07/05 08:11:08;;;;;;;2.58;2.35;;;26.50;56.10;27.00;100044.00;;;;4926820;28;110774;-74
2023/07/05 08:13:35;;;;;;;3.85;2.35;;;26.60;56.30;27.10;100052.00;;;;4945377;28;93811;-73
2023/07/05 08:16:02;;;;;;;3.97;2.03;;;26.70;55.80;27.10;100052.00;;;;4967252;28;93819;-73
2023/07/05 08:18:29;;;;;;;5.65;2.20;;;26.80;54.40;26.90;100062.00;;;;4949192;28;92867;-73
2023/07/05 08:20:55;;;;;;;2.92;1.67;;;26.70;54.70;26.80;100055.00;;;;4948517;28;92789;-74
2023/07/05 08:23:21;;;;;;;5.25;2.25;;;26.60;54.30;26.70;100055.00;;;;4945404;28;93032;-73
2023/07/05 08:25:54;;;;;;;2.88;2.15;;;26.50;54.90;26.80;100060.00;;;;4963079;28;122965;-76
2023/07/05 08:28:25;;;;;;;2.47;1.65;;;26.50;55.20;26.80;100048.00;;;;4963097;28;93877;-73
2023/07/05 08:30:54;;;;;;;3.03;1.75;;;26.50;54.90;26.70;100045.00;;;;4951145;28;92320;-73
2023/07/05 08:33:21;;;;;;;3.92;1.60;;;26.50;54.30;26.60;100059.00;;;;4967971;28;93077;-74
2023/07/05 08:35:49;;;;;;;2.97;1.75;;;26.40;54.20;26.50;100055.00;;;;4966639;28;93845;-75
2023/07/05 08:38:18;;;;;;;2.20;1.55;;;26.30;54.30;26.30;100070.00;;;;4946888;28;94118;-75
2023/07/05 08:40:50;;;;;;;3.60;1.80;;;26.10;54.70;26.20;100074.00;;;;4952905;28;93037;-73
2023/07/05 08:43:41;;;;;;;2.65;1.95;;;26.10;55.20;26.20;100079.00;;;;4952842;28;93106;-73
2023/07/05 08:46:12;;;;;;;2.35;1.52;;;26.00;55.40;26.30;100085.00;;;;4950820;28;93189;-74
2023/07/05 08:48:37;;;;;;;1.73;1.52;;;26.00;55.50;26.40;100081.00;;;;4966526;28;116204;-75
2023/07/05 08:51:05;;;;;;;1.75;1.45;;;26.10;55.50;26.40;100090.00;;;;4951685;28;110127;-74
2023/07/05 08:53:41;;;;;;;2.33;1.25;;;26.20;55.60;26.40;100088.00;;;;4970049;28;108532;-74
2023/07/05 08:56:15;;;;;;;2.60;1.52;;;26.20;56.10;26.40;100087.00;;;;4954398;28;115764;-74
2023/07/05 08:59:01;;;;;;;2.70;1.23;;;26.10;56.40;26.40;100094.00;;;;4951450;28;105162;-72
2023/07/05 09:01:32;;;;;;;2.00;1.25;;;26.10;56.00;26.40;100105.00;;;;4950979;28;93627;-72
2023/07/05 09:03:58;;;;;;;2.10;0.75;;;26.10;56.30;26.40;100089.00;;;;4950812;28;95119;-72
2023/07/05 09:06:29;;;;;;;2.10;0.88;;;26.10;55.90;26.50;100084.00;;;;4968950;28;93027;-75
2023/07/05 09:09:20;;;;;;;1.77;1.20;;;26.20;55.70;26.60;100089.00;;;;4947760;28;93135;-73
2023/07/05 09:12:03;;;;;;;2.80;1.58;;;26.30;56.10;26.80;100096.00;;;;4947098;28;93430;-73
2023/07/05 09:15:01;;;;;;;3.15;0.93;;;26.40;55.90;26.80;100085.00;;;;4952240;28;92932;-73
2023/07/05 09:17:43;;;;;;;3.63;0.85;;;26.50;54.30;26.80;100085.00;;;;4914313;28;93660;-74
2023/07/05 09:20:55;;;;;;;0.75;0.70;;;26.50;53.90;26.80;100075.00;;;;4948172;28;93024;-72
2023/07/05 09:23:54;;;;;;;1.38;0.70;;;26.50;53.50;26.80;100088.00;;;;4887753;28;92111;-73
2023/07/05 09:26:27;;;;;;;2.45;0.80;;;26.50;53.30;26.80;100086.00;;;;4970443;28;98547;-74
2023/07/05 09:29:29;;;;;;;1.83;1.23;;;26.60;53.20;26.70;100089.00;;;;4951741;28;102232;-75
2023/07/05 09:31:55;;;;;;;1.77;0.70;;;26.50;53.10;26.70;100082.00;;;;4949160;28;94135;-74
2023/07/05 09:34:44;;;;;;;0.52;0.52;;;26.30;53.00;26.50;100093.00;;;;4952414;28;92709;-74
2023/07/05 09:37:22;;;;;;;0.50;0.50;;;26.30;53.10;26.50;100090.00;;;;4965170;28;92634;-75
2023/07/05 09:40:02;;;;;;;1.60;0.60;;;26.30;53.60;26.50;100081.00;;;;4931224;28;95361;-73
2023/07/05 09:43:08;;;;;;;0.40;0.40;;;26.20;53.60;26.40;100094.00;;;;4971408;28;93010;-76
2023/07/05 09:45:34;;;;;;;1.95;0.85;;;26.20;53.30;26.40;100098.00;;;;4944976;28;93316;-72
2023/07/05 09:48:06;;;;;;;1.20;0.52;;;26.10;53.00;26.30;100091.00;;;;4958694;28;93285;-73
2023/07/05 09:50:32;;;;;;;1.02;0.60;;;26.00;53.20;26.20;100087.00;;;;4967731;28;106829;-75
2023/07/05 09:53:30;;;;;;;2.20;1.00;;;25.90;53.50;26.10;100105.00;;;;4967954;28;122390;-73
2023/07/05 09:56:09;;;;;;;0.52;0.50;;;25.90;53.60;26.00;100094.00;;;;4973298;28;93075;-75
2023/07/05 09:58:36;;;;;;;1.38;0.73;;;25.80;53.60;26.00;100101.00;;;;4936776;28;94065;-74
2023/07/05 10:01:08;;;;;;;2.10;0.90;;;25.80;53.90;26.00;100100.00;;;;4970069;28;93424;-74
2023/07/05 10:03:52;;;;;;;1.25;0.70;;;25.70;54.10;26.10;100097.00;;;;4950728;28;93970;-75
2023/07/05 10:06:19;;;;;;;0.65;0.52;;;25.80;54.50;26.10;100094.00;;;;4941233;28;92816;-75
2023/07/05 10:08:49;;;;;;;1.17;0.60;;;25.70;54.20;26.20;100101.00;;;;4952522;28;92788;-76
2023/07/05 10:11:33;;;;;;;0.90;0.60;;;25.90;54.50;26.40;100103.00;;;;4946884;28;95004;-73
2023/07/05 10:14:10;;;;;;;0.80;0.57;;;26.00;54.70;26.60;100095.00;;;;4953902;28;92883;-73
2023/07/05 10:17:03;;;;;;;0.63;0.63;;;26.20;54.80;26.70;100089.00;;;;4969323;28;92098;-76
2023/07/05 10:19:50;;;;;;;2.35;1.05;;;26.30;54.40;26.70;100087.00;;;;4954958;28;92915;-74
2023/07/05 10:22:26;;;;;;;0.40;0.30;;;26.40;54.20;26.70;100082.00;;;;4954683;28;92768;-74
2023/07/05 10:25:00;;;;;;;1.63;0.60;;;26.40;54.60;26.60;100093.00;;;;4968066;28;94551;-74
2023/07/05 10:27:38;;;;;;;1.08;0.77;;;26.30;55.00;26.60;100086.00;;;;4971717;28;92851;-76
2023/07/05 10:30:12;;;;;;;0.47;0.47;;;26.30;55.40;26.50;100089.00;;;;4957390;28;93111;-74
2023/07/05 10:32:40;;;;;;;14.27;1.00;;;26.20;55.80;26.30;100090.00;;;;4956188;28;93349;-73
2023/07/05 10:35:28;;;;;;;0.80;0.77;;;26.10;55.90;26.20;100091.00;;;;4955413;28;93524;-73
2023/07/05 10:37:55;;;;;;;2.28;0.85;;;26.00;56.40;26.10;100092.00;;;;4938761;28;93258;-72
2023/07/05 10:40:23;;;;;;;0.68;0.68;;;25.90;56.80;26.20;100095.00;;;;4968458;28;100425;-73
2023/07/05 10:42:57;;;;;;;0.70;0.70;;;25.90;57.00;26.30;100098.00;;;;4968166;28;108913;-77
2023/07/05 10:45:22;;;;;;;1.27;0.68;;;26.00;57.30;26.50;100091.00;;;;4965837;28;104922;-76
2023/07/05 10:47:52;;;;;;;0.77;0.63;;;26.10;57.30;26.70;100084.00;;;;4969657;28;110804;-73
2023/07/05 10:50:28;;;;;;;0.80;0.63;;;26.30;57.40;26.70;100094.00;;;;4948924;28;94578;-75
2023/07/05 10:53:04;;;;;;;0.73;0.70;;;26.40;57.50;26.90;100086.00;;;;4950444;28;93180;-73
2023/07/05 10:55:48;;;;;;;1.50;0.75;;;26.50;57.40;26.90;100082.00;;;;4950166;28;110778;-76
2023/07/05 10:58:17;;;;;;;1.15;0.70;;;26.60;57.00;26.90;100077.00;;;;4953854;28;93157;-73